TimeCST,TemperatureF,Dew PointF,Humidity,Sea Level PressureIn,VisibilityMPH,Wind Direction,Wind SpeedMPH,Gust SpeedMPH,PrecipitationIn,Events,Conditions,WindDirDegrees,DateUTC
12:53 AM,24.1,12.9,62,30.21,10.0,SW,5.8,-,N/A,,Clear,230,2013-02-17 06:53:00
1:53 AM,23.0,14.0,68,30.20,10.0,WSW,5.8,-,N/A,,Clear,240,2013-02-17 07:53:00
2:53 AM,23.0,15.1,72,30.20,10.0,Calm,Calm,-,N/A,,Clear,0,2013-02-17 08:53:00
3:53 AM,19.9,15.1,81,30.21,10.0,Calm,Calm,-,N/A,,Clear,0,2013-02-17 09:53:00
4:53 AM,21.0,15.1,78,30.22,10.0,Calm,Calm,-,N/A,,Clear,0,2013-02-17 10:53:00
5:53 AM,21.2,17.6,86,30.21,10.0,Calm,Calm,-,N/A,,Overcast,0,2013-02-17 11:53:00
6:53 AM,23.0,18.0,81,30.23,10.0,Calm,Calm,-,N/A,,Overcast,0,2013-02-17 12:53:00
7:53 AM,27.0,21.0,78,30.25,10.0,Calm,Calm,-,N/A,,Overcast,0,2013-02-17 13:53:00
8:53 AM,32.0,25.0,75,30.26,10.0,Calm,Calm,-,N/A,,Overcast,0,2013-02-17 14:53:00
9:53 AM,36.0,25.0,64,30.25,10.0,Calm,Calm,-,N/A,,Overcast,0,2013-02-17 15:53:00
10:53 AM,39.9,25.0,55,30.25,10.0,South,5.8,-,N/A,,Overcast,170,2013-02-17 16:53:00
11:53 AM,42.1,19.9,41,30.22,10.0,SSW,6.9,-,N/A,,Overcast,200,2013-02-17 17:53:00
12:53 PM,44.1,19.9,38,30.19,10.0,SW,9.2,16.1,N/A,,Overcast,220,2013-02-17 18:53:00
1:53 PM,45.0,21.0,39,30.17,10.0,South,10.4,-,N/A,,Overcast,170,2013-02-17 19:53:00
2:53 PM,46.0,19.9,35,30.14,10.0,South,12.7,-,N/A,,Mostly Cloudy,180,2013-02-17 20:53:00
3:53 PM,46.9,21.0,36,30.13,10.0,South,9.2,-,N/A,,Clear,180,2013-02-17 21:53:00
4:53 PM,46.0,19.9,35,30.12,10.0,South,8.1,-,N/A,,Clear,170,2013-02-17 22:53:00
5:53 PM,41.0,21.9,47,30.10,10.0,SE,5.8,-,N/A,,Clear,140,2013-02-17 23:53:00
6:53 PM,39.0,21.9,50,30.10,10.0,SE,5.8,-,N/A,,Clear,130,2013-02-18 00:53:00
7:53 PM,37.9,21.0,51,30.11,10.0,SE,4.6,-,N/A,,Clear,130,2013-02-18 01:53:00
8:53 PM,37.9,21.9,53,30.10,10.0,SSE,6.9,-,N/A,,Clear,150,2013-02-18 02:53:00
9:53 PM,39.0,21.9,50,30.09,10.0,SSE,9.2,-,N/A,,Clear,150,2013-02-18 03:53:00
11:53 PM,37.0,23.0,57,30.06,10.0,SSE,8.1,-,N/A,,Clear,150,2013-02-18 05:53:00